createdAt,value
2019-05-14T00:00:32.188Z,1.60
2019-05-14T00:03:02.337Z,1.10
2019-05-14T00:05:32.300Z,1.30
2019-05-14T00:08:02.284Z,1.33
2019-05-14T00:10:32.801Z,1.30
2019-05-14T00:13:02.135Z,1.53
2019-05-14T00:15:32.195Z,1.20
2019-05-14T00:18:01.795Z,1.33
2019-05-14T00:20:31.513Z,1.37
2019-05-14T00:23:01.502Z,1.20
2019-05-14T00:25:31.914Z,1.40
2019-05-14T00:28:01.488Z,1.30
2019-05-14T00:30:31.669Z,1.27
2019-05-14T00:33:01.415Z,1.73
2019-05-14T00:35:32.506Z,1.30
2019-05-14T00:38:02.729Z,1.30
2019-05-14T00:40:32.054Z,1.17
2019-05-14T00:43:02.616Z,1.27
2019-05-14T00:45:32.163Z,1.00
2019-05-14T00:48:07.522Z,1.20
2019-05-14T00:50:36.839Z,1.23
2019-05-14T00:53:06.150Z,1.37
2019-05-14T00:55:35.457Z,1.30
2019-05-14T00:58:04.785Z,1.77
2019-05-14T01:00:35.198Z,1.60
2019-05-14T01:03:04.580Z,1.80
2019-05-14T01:05:33.882Z,1.20
2019-05-14T01:08:03.266Z,1.10
2019-05-14T01:10:32.583Z,1.80
2019-05-14T01:13:01.899Z,1.63
2019-05-14T01:15:32.220Z,1.70
2019-05-14T01:18:02.319Z,2.07
2019-05-14T01:20:32.064Z,2.60
2019-05-14T01:23:02.323Z,1.70
2019-05-14T01:25:31.969Z,1.60
2019-05-14T01:28:02.343Z,1.40
2019-05-14T01:30:32.048Z,1.77
2019-05-14T01:33:01.919Z,2.37
2019-05-14T01:35:31.766Z,1.83
2019-05-14T01:38:02.669Z,2.60
2019-05-14T01:40:32.359Z,1.70
2019-05-14T01:43:02.565Z,2.27
2019-05-14T01:45:32.711Z,3.83
2019-05-14T01:48:02.035Z,1.87
2019-05-14T01:50:32.357Z,1.30
2019-05-14T01:53:01.752Z,3.03
2019-05-14T01:55:32.468Z,1.27
2019-05-14T01:58:02.332Z,1.70
2019-05-14T02:00:31.868Z,1.30
2019-05-14T02:03:01.770Z,1.60
2019-05-14T02:05:31.383Z,1.87
2019-05-14T02:08:01.848Z,1.30
2019-05-14T02:10:31.727Z,1.30
2019-05-14T02:13:01.947Z,1.67
2019-05-14T02:15:39.246Z,1.50
2019-05-14T02:18:03.542Z,1.13
2019-05-14T02:20:32.845Z,2.20
2019-05-14T02:23:02.163Z,1.33
2019-05-14T02:25:32.065Z,1.57
2019-05-14T02:28:01.618Z,1.93
2019-05-14T02:30:45.780Z,1.23
2019-05-14T02:33:01.995Z,1.50
2019-05-14T02:35:31.384Z,1.60
2019-05-14T02:38:01.214Z,1.60
2019-05-14T02:40:30.524Z,1.67
2019-05-14T02:42:59.920Z,1.50
2019-05-14T02:45:30.386Z,1.60
2019-05-14T02:48:01.066Z,1.20
2019-05-14T02:50:31.099Z,1.43
2019-05-14T02:53:00.420Z,1.73
2019-05-14T02:55:30.102Z,1.37
2019-05-14T02:58:00.069Z,1.90
2019-05-14T03:00:30.276Z,1.40
2019-05-14T03:03:00.085Z,1.20
2019-05-14T03:05:29.855Z,1.67
2019-05-14T03:08:00.141Z,1.33
2019-05-14T03:10:30.475Z,1.40
2019-05-14T03:13:00.105Z,1.30
2019-05-14T03:15:29.573Z,1.60
2019-05-14T03:17:59.882Z,1.77
2019-05-14T03:20:29.559Z,1.57
2019-05-14T03:23:08.002Z,1.33
2019-05-14T03:25:30.473Z,1.40
2019-05-14T03:28:00.200Z,1.40
2019-05-14T03:30:32.535Z,1.33
2019-05-14T03:33:02.967Z,1.40
2019-05-14T03:35:41.620Z,1.40
2019-05-14T03:38:03.215Z,1.40
2019-05-14T03:40:32.602Z,1.43
2019-05-14T03:43:01.995Z,1.27
2019-05-14T03:45:33.008Z,1.13
2019-05-14T03:48:02.342Z,1.50
2019-05-14T03:50:38.951Z,1.30
2019-05-14T03:53:10.167Z,1.60
2019-05-14T03:55:40.494Z,1.23
2019-05-14T03:58:10.155Z,1.57
2019-05-14T04:00:51.399Z,1.77
2019-05-14T04:03:21.252Z,1.40
2019-05-14T04:05:51.296Z,1.67
2019-05-14T04:08:21.611Z,1.40
2019-05-14T04:10:54.191Z,1.53
2019-05-14T04:13:24.102Z,1.60
2019-05-14T04:15:55.897Z,1.70
2019-05-14T04:18:28.909Z,1.60
2019-05-14T04:20:59.651Z,1.60
2019-05-14T04:23:30.455Z,1.40
2019-05-14T04:26:03.119Z,2.00
2019-05-14T04:28:34.551Z,2.70
2019-05-14T04:31:05.199Z,1.77
2019-05-14T04:33:38.945Z,2.37
2019-05-14T04:36:09.900Z,2.63
2019-05-14T04:38:40.876Z,2.23
2019-05-14T04:41:10.824Z,2.83
2019-05-14T04:43:40.589Z,2.10
2019-05-14T04:46:10.773Z,2.40
2019-05-14T04:48:43.904Z,2.07
2019-05-14T04:51:13.851Z,2.30
2019-05-14T04:53:43.299Z,1.30
2019-05-14T04:56:12.701Z,1.30
2019-05-14T04:58:43.155Z,2.43
2019-05-14T05:01:13.515Z,1.63
2019-05-14T05:03:42.874Z,1.63
2019-05-14T05:06:12.275Z,2.30
2019-05-14T05:08:42.539Z,1.70
2019-05-14T05:11:11.867Z,2.67
2019-05-14T05:13:41.187Z,1.60
2019-05-14T05:16:10.502Z,2.20
2019-05-14T05:18:40.283Z,1.53
2019-05-14T05:21:09.674Z,1.50
2019-05-14T05:23:39.001Z,1.60
2019-05-14T05:26:09.201Z,1.37
2019-05-14T05:28:39.361Z,1.43
2019-05-14T05:31:09.405Z,1.67
2019-05-14T05:33:38.902Z,1.93
2019-05-14T05:36:09.518Z,1.73
2019-05-14T05:38:39.600Z,1.87
2019-05-14T05:41:09.245Z,2.20
2019-05-14T05:43:39.292Z,1.60
2019-05-14T05:46:08.940Z,1.90
2019-05-14T05:48:38.845Z,2.60
2019-05-14T05:51:09.114Z,1.67
2019-05-14T05:53:39.686Z,1.60
2019-05-14T05:56:09.233Z,1.60
2019-05-14T05:58:39.824Z,1.57
2019-05-14T06:01:09.942Z,1.70
2019-05-14T06:03:39.569Z,1.60
2019-05-14T06:06:13.587Z,1.70
2019-05-14T06:08:39.974Z,1.60
2019-05-14T06:11:09.294Z,1.50
2019-05-14T06:13:39.285Z,1.60
2019-05-14T06:16:09.516Z,1.23
2019-05-14T06:18:39.650Z,1.50
2019-05-14T06:21:09.311Z,2.43
2019-05-14T06:23:39.732Z,1.43
2019-05-14T06:26:11.567Z,1.60
2019-05-14T06:28:41.185Z,1.70
2019-05-14T06:31:10.663Z,1.97
2019-05-14T06:33:39.992Z,1.93
2019-05-14T06:36:09.404Z,1.43
2019-05-14T06:38:39.060Z,1.50
2019-05-14T06:41:08.648Z,1.70
2019-05-14T06:43:39.185Z,1.30
2019-05-14T06:46:09.879Z,1.83
2019-05-14T06:48:39.813Z,2.10
2019-05-14T06:51:09.186Z,1.30
2019-05-14T06:53:39.242Z,1.93
2019-05-14T06:56:09.562Z,1.87
2019-05-14T06:58:39.189Z,1.50
2019-05-14T07:01:09.609Z,1.63
2019-05-14T07:03:39.180Z,1.40
2019-05-14T07:06:09.125Z,1.70
2019-05-14T07:08:39.186Z,1.60
2019-05-14T07:11:08.847Z,1.60
2019-05-14T07:13:38.632Z,1.30
2019-05-14T07:16:09.233Z,1.50
2019-05-14T07:18:50.899Z,1.23
2019-05-14T07:21:09.656Z,2.40
2019-05-14T07:23:38.976Z,1.47
2019-05-14T07:26:08.657Z,1.17
2019-05-14T07:28:41.973Z,1.97
2019-05-14T07:31:10.107Z,1.50
2019-05-14T07:33:39.440Z,1.43
2019-05-14T07:36:09.032Z,1.57
2019-05-14T07:38:39.078Z,1.57
2019-05-14T07:41:09.398Z,1.80
2019-05-14T07:43:39.607Z,1.37
2019-05-14T07:46:09.029Z,1.47
2019-05-14T07:48:39.188Z,1.80
2019-05-14T07:51:09.164Z,1.40
2019-05-14T07:53:42.221Z,1.30
2019-05-14T07:56:09.710Z,1.33
2019-05-14T07:58:40.035Z,2.90
2019-05-14T08:01:09.665Z,2.27
2019-05-14T08:03:40.019Z,2.10
2019-05-14T08:06:09.340Z,1.40
2019-05-14T08:08:38.806Z,2.27
2019-05-14T08:11:08.784Z,2.00
2019-05-14T08:13:42.274Z,1.40
2019-05-14T08:16:11.372Z,1.60
2019-05-14T08:18:40.691Z,1.70
2019-05-14T08:21:10.159Z,1.60
2019-05-14T08:23:39.509Z,1.70
2019-05-14T08:26:09.855Z,1.50
2019-05-14T08:28:39.253Z,1.37
2019-05-14T08:31:09.428Z,1.97
2019-05-14T08:33:39.953Z,1.63
2019-05-14T08:36:09.327Z,1.27
2019-05-14T08:38:38.649Z,1.40
2019-05-14T08:41:08.515Z,1.77
2019-05-14T08:43:39.770Z,2.47
2019-05-14T08:46:09.043Z,1.50
2019-05-14T08:48:39.083Z,2.20
2019-05-14T08:51:09.097Z,1.80
2019-05-14T08:53:38.920Z,1.93
2019-05-14T08:56:09.486Z,1.60
2019-05-14T08:58:40.037Z,2.43
2019-05-14T09:01:10.424Z,1.67
2019-05-14T09:03:39.747Z,1.23
2019-05-14T09:06:09.372Z,1.20
2019-05-14T09:08:39.365Z,1.70
2019-05-14T09:11:09.851Z,1.73
2019-05-14T09:13:39.508Z,1.40
2019-05-14T09:16:09.340Z,1.50
2019-05-14T09:18:38.921Z,1.67
2019-05-14T09:21:08.769Z,1.93
2019-05-14T09:23:39.549Z,1.70
2019-05-14T09:26:09.707Z,1.53
2019-05-14T09:28:40.291Z,1.40
2019-05-14T09:31:10.597Z,1.70
2019-05-14T09:33:39.915Z,1.97
2019-05-14T09:36:17.861Z,1.40
2019-05-14T09:38:42.224Z,1.40
2019-05-14T09:41:15.278Z,1.50
2019-05-14T09:43:42.451Z,1.60
2019-05-14T09:46:11.763Z,1.90
2019-05-14T09:48:42.061Z,1.43
2019-05-14T09:51:11.380Z,1.40
2019-05-14T09:53:40.698Z,1.20
2019-05-14T09:56:10.092Z,1.33
2019-05-14T09:58:45.691Z,1.03
2019-05-14T10:01:15.084Z,1.20
2019-05-14T10:03:44.395Z,1.30
2019-05-14T10:06:13.716Z,1.90
2019-05-14T10:08:43.117Z,1.87
2019-05-14T10:11:12.516Z,2.87
2019-05-14T10:13:41.827Z,1.30
2019-05-14T10:16:12.292Z,1.60
2019-05-14T10:18:41.658Z,1.30
2019-05-14T10:21:10.983Z,1.10
2019-05-14T10:23:40.303Z,1.40
2019-05-14T10:26:09.663Z,1.63
2019-05-14T10:28:43.097Z,1.27
2019-05-14T10:31:13.204Z,1.40
2019-05-14T10:33:42.262Z,1.07
2019-05-14T10:36:11.579Z,1.10
2019-05-14T10:38:41.036Z,1.00
2019-05-14T10:41:10.361Z,1.40
2019-05-14T10:43:39.679Z,1.57
2019-05-14T10:46:09.318Z,1.30
2019-05-14T10:48:39.546Z,1.70
2019-05-14T10:51:09.904Z,1.63
2019-05-14T10:53:39.402Z,1.30
2019-05-14T10:56:09.817Z,1.03
2019-05-14T10:58:40.288Z,1.20
2019-05-14T11:01:11.296Z,1.50
2019-05-14T11:03:40.714Z,1.20
2019-05-14T11:06:11.683Z,1.40
2019-05-14T11:08:41.250Z,1.33
2019-05-14T11:11:10.842Z,1.37
2019-05-14T11:13:41.173Z,1.30
2019-05-14T11:16:11.463Z,1.20
2019-05-14T11:18:40.830Z,1.27
2019-05-14T11:21:27.536Z,1.30
2019-05-14T11:23:41.238Z,1.20
2019-05-14T11:26:10.560Z,1.30
2019-05-14T11:28:39.923Z,1.50
2019-05-14T11:31:09.435Z,1.10
2019-05-14T11:33:39.005Z,1.50
2019-05-14T11:36:09.328Z,1.27
2019-05-14T11:38:38.904Z,1.17
2019-05-14T11:41:09.577Z,1.13
2019-05-14T11:43:39.895Z,1.03
2019-05-14T11:46:09.444Z,1.10
2019-05-14T11:48:39.445Z,0.87
2019-05-14T11:51:09.106Z,1.30
2019-05-14T11:53:38.765Z,1.20
2019-05-14T11:56:08.868Z,1.37
2019-05-14T11:58:38.337Z,1.10
2019-05-14T12:01:09.236Z,1.10
2019-05-14T12:03:40.556Z,0.90
2019-05-14T12:06:10.105Z,1.20
2019-05-14T12:08:41.929Z,1.10
2019-05-14T12:11:10.588Z,1.03
2019-05-14T12:13:39.917Z,1.40
2019-05-14T12:16:09.248Z,1.20
2019-05-14T12:18:41.705Z,1.37
2019-05-14T12:21:09.671Z,1.37
2019-05-14T12:23:39.469Z,1.10
2019-05-14T12:26:09.616Z,1.20
2019-05-14T12:28:39.220Z,1.50
2019-05-14T12:31:09.379Z,1.10
2019-05-14T12:33:39.782Z,1.13
2019-05-14T12:36:10.535Z,1.50
2019-05-14T12:38:40.710Z,1.00
2019-05-14T12:41:10.129Z,1.17
2019-05-14T12:43:43.691Z,0.90
2019-05-14T12:46:11.426Z,0.77
2019-05-14T12:48:40.824Z,1.30
2019-05-14T12:51:10.145Z,0.90
2019-05-14T12:53:39.752Z,1.10
2019-05-14T12:56:09.140Z,1.40
2019-05-14T12:58:44.929Z,1.20
2019-05-14T13:01:09.673Z,1.10
2019-05-14T13:03:39.064Z,0.90
2019-05-14T13:06:10.089Z,0.90
2019-05-14T13:08:39.482Z,1.10
2019-05-14T13:11:09.613Z,1.20
2019-05-14T13:13:42.933Z,1.63
2019-05-14T13:16:10.356Z,1.20
2019-05-14T13:18:39.671Z,1.13
2019-05-14T13:21:09.005Z,1.77
2019-05-14T13:23:38.562Z,1.00
2019-05-14T13:26:10.511Z,0.90
2019-05-14T13:28:40.171Z,1.30
2019-05-14T13:31:09.764Z,1.00
2019-05-14T13:33:39.468Z,0.90
2019-05-14T13:36:08.971Z,0.80
2019-05-14T13:38:39.797Z,1.00
2019-05-14T13:41:09.235Z,0.80
2019-05-14T13:43:39.711Z,0.97
2019-05-14T13:46:11.283Z,1.10
2019-05-14T13:48:43.463Z,1.00
2019-05-14T13:51:11.527Z,1.57
2019-05-14T13:53:40.927Z,1.03
2019-05-14T13:56:10.958Z,0.53
2019-05-14T13:58:40.323Z,0.80
2019-05-14T14:01:15.627Z,1.30
2019-05-14T14:03:52.317Z,0.90
2019-05-14T14:06:20.442Z,0.90
2019-05-14T14:08:48.813Z,1.17
2019-05-14T14:11:19.405Z,1.20
2019-05-14T14:13:49.189Z,0.83
2019-05-14T14:16:19.585Z,1.07
2019-05-14T14:18:50.014Z,0.97
2019-05-14T14:21:20.038Z,1.10
2019-05-14T14:23:49.894Z,0.73
2019-05-14T14:26:20.871Z,1.10
2019-05-14T14:28:50.196Z,0.90
2019-05-14T14:31:19.563Z,0.67
2019-05-14T14:33:49.859Z,0.80
2019-05-14T14:36:20.112Z,0.80
2019-05-14T14:38:50.616Z,0.90
2019-05-14T14:41:20.015Z,0.90
2019-05-14T14:43:53.344Z,0.80
2019-05-14T14:46:21.415Z,0.80
2019-05-14T14:48:51.705Z,0.77
2019-05-14T14:51:21.096Z,1.00
2019-05-14T14:53:59.169Z,0.83
2019-05-14T14:56:21.498Z,1.20
2019-05-14T14:58:50.816Z,1.00
2019-05-14T15:01:20.526Z,1.20
2019-05-14T15:03:51.286Z,0.90
2019-05-14T15:06:20.830Z,0.80
2019-05-14T15:08:50.224Z,1.20
2019-05-14T15:11:19.545Z,1.10
2019-05-14T15:13:48.871Z,1.67
2019-05-14T15:16:20.117Z,0.97
2019-05-14T15:18:49.903Z,0.90
2019-05-14T15:21:19.476Z,1.80
2019-05-14T15:24:06.183Z,0.73
2019-05-14T15:26:20.036Z,1.40
2019-05-14T15:28:49.671Z,0.90
2019-05-14T15:31:19.402Z,0.90
2019-05-14T15:33:51.027Z,0.50
2019-05-14T15:36:19.900Z,0.90
2019-05-14T15:38:49.284Z,0.80
2019-05-14T15:41:19.961Z,0.93
2019-05-14T15:43:49.702Z,0.70
2019-05-14T15:46:19.013Z,0.73
2019-05-14T15:48:48.935Z,0.73
2019-05-14T15:51:19.635Z,0.80
2019-05-14T15:54:05.404Z,0.80
2019-05-14T15:56:20.219Z,0.70
2019-05-14T15:58:49.549Z,0.87
2019-05-14T16:01:19.449Z,0.90
2019-05-14T16:03:49.232Z,0.80
2019-05-14T16:06:19.411Z,0.73
2019-05-14T16:08:49.026Z,0.90
2019-05-14T16:11:19.419Z,0.83
2019-05-14T16:13:49.502Z,1.00
2019-05-14T16:16:19.598Z,0.77
2019-05-14T16:18:50.184Z,0.90
2019-05-14T16:21:19.643Z,0.90
2019-05-14T16:23:48.965Z,0.73
2019-05-14T16:26:18.878Z,0.97
2019-05-14T16:28:48.284Z,0.83
2019-05-14T16:31:18.610Z,0.80
2019-05-14T16:33:49.759Z,0.70
2019-05-14T16:36:20.412Z,0.70
2019-05-14T16:38:49.775Z,0.70
2019-05-14T16:41:20.260Z,0.80
2019-05-14T16:43:49.778Z,0.97
2019-05-14T16:46:19.233Z,1.03
2019-05-14T16:48:48.973Z,0.97
2019-05-14T16:51:19.253Z,0.90
2019-05-14T16:53:49.866Z,0.70
2019-05-14T16:56:19.476Z,1.00
2019-05-14T16:58:48.903Z,0.90
2019-05-14T17:01:19.337Z,0.67
2019-05-14T17:03:49.382Z,0.90
2019-05-14T17:06:19.092Z,1.27
2019-05-14T17:08:49.052Z,0.80
2019-05-14T17:11:18.638Z,1.00
2019-05-14T17:13:48.952Z,0.80
2019-05-14T17:16:19.831Z,0.97
2019-05-14T17:18:49.229Z,0.87
2019-05-14T17:21:18.552Z,0.70
2019-05-14T17:23:48.896Z,0.80
2019-05-14T17:26:18.731Z,0.70
2019-05-14T17:28:48.840Z,0.70
2019-05-14T17:31:19.163Z,0.60
2019-05-14T17:33:49.282Z,0.77
2019-05-14T17:36:19.876Z,0.70
2019-05-14T17:38:49.493Z,0.70
2019-05-14T17:41:19.863Z,0.80
2019-05-14T17:43:49.506Z,0.73
2019-05-14T17:46:18.968Z,0.93
2019-05-14T17:48:49.345Z,0.70
2019-05-14T17:51:18.684Z,0.83
2019-05-14T17:53:48.302Z,0.80
2019-05-14T17:56:19.178Z,0.90
2019-05-14T17:58:49.091Z,0.80
2019-05-14T18:01:18.702Z,1.20
2019-05-14T18:03:49.168Z,0.90
2019-05-14T18:06:20.102Z,0.83
2019-05-14T18:08:51.027Z,0.90
2019-05-14T18:11:20.406Z,0.80
2019-05-14T18:13:50.708Z,1.03
2019-05-14T18:16:20.024Z,0.80
2019-05-14T18:18:49.649Z,1.43
2019-05-14T18:21:19.246Z,0.97
2019-05-14T18:23:49.178Z,0.83
2019-05-14T18:26:19.041Z,0.80
2019-05-14T18:28:48.435Z,1.07
2019-05-14T18:31:20.118Z,0.90
2019-05-14T18:33:49.349Z,0.70
2019-05-14T18:36:19.335Z,0.90
2019-05-14T18:38:49.526Z,0.80
2019-05-14T18:41:19.314Z,0.80
2019-05-14T18:43:48.802Z,0.80
2019-05-14T18:46:19.230Z,0.70
2019-05-14T18:48:49.975Z,0.80
2019-05-14T18:51:19.838Z,0.80
2019-05-14T18:53:49.295Z,0.70
2019-05-14T18:56:24.072Z,0.80
2019-05-14T18:58:49.922Z,0.93
2019-05-14T19:01:19.776Z,0.60
2019-05-14T19:03:49.554Z,1.10
2019-05-14T19:06:19.080Z,0.70
2019-05-14T19:08:49.153Z,0.87
2019-05-14T19:11:18.813Z,0.87
2019-05-14T19:13:49.211Z,0.73
2019-05-14T19:16:18.596Z,0.90
2019-05-14T19:18:48.901Z,0.83
2019-05-14T19:21:19.139Z,1.10
2019-05-14T19:23:49.126Z,1.30
2019-05-14T19:26:33.071Z,1.40
2019-05-14T19:28:50.556Z,1.33
2019-05-14T19:31:19.923Z,1.47
2019-05-14T19:33:50.955Z,1.00
2019-05-14T19:36:20.288Z,1.00
2019-05-14T19:38:49.654Z,1.23
2019-05-14T19:41:22.551Z,1.50
2019-05-14T19:43:50.006Z,1.17
2019-05-14T19:46:20.300Z,0.80
2019-05-14T19:48:49.655Z,1.20
2019-05-14T19:51:18.974Z,1.03
2019-05-14T19:53:49.551Z,0.90
2019-05-14T19:56:20.267Z,0.77
2019-05-14T19:58:49.655Z,1.10
2019-05-14T20:01:19.462Z,0.90
2019-05-14T20:03:49.920Z,1.00
2019-05-14T20:06:19.318Z,1.00
2019-05-14T20:08:48.803Z,1.20
2019-05-14T20:11:19.262Z,1.70
2019-05-14T20:13:49.892Z,1.20
2019-05-14T20:16:19.365Z,1.70
2019-05-14T20:18:48.936Z,1.97
2019-05-14T20:21:18.320Z,1.60
2019-05-14T20:23:48.267Z,1.57
2019-05-14T20:26:17.659Z,1.40
2019-05-14T20:28:48.389Z,1.30
2019-05-14T20:31:18.149Z,1.30
2019-05-14T20:33:48.588Z,1.20
2019-05-14T20:36:18.790Z,1.50
2019-05-14T20:38:49.964Z,1.10
2019-05-14T20:41:19.313Z,1.30
2019-05-14T20:43:48.633Z,1.20
2019-05-14T20:46:18.625Z,0.70
2019-05-14T20:48:48.282Z,1.30
2019-05-14T20:51:18.614Z,1.93
2019-05-14T20:53:48.835Z,1.07
2019-05-14T20:56:18.966Z,0.80
2019-05-14T20:58:48.564Z,1.10
2019-05-14T21:01:18.539Z,1.00
2019-05-14T21:03:48.391Z,0.90
2019-05-14T21:06:18.758Z,1.37
2019-05-14T21:08:48.965Z,1.10
2019-05-14T21:11:19.514Z,1.23
2019-05-14T21:13:50.422Z,0.90
2019-05-14T21:16:19.805Z,1.30
2019-05-14T21:18:49.124Z,1.13
2019-05-14T21:21:18.647Z,1.30
2019-05-14T21:23:49.164Z,0.90
2019-05-14T21:26:19.354Z,1.17
2019-05-14T21:28:48.894Z,0.80
2019-05-14T21:31:18.268Z,1.40
2019-05-14T21:33:48.934Z,0.90
2019-05-14T21:36:19.325Z,1.40
2019-05-14T21:38:49.213Z,0.80
2019-05-14T21:41:20.471Z,0.97
2019-05-14T21:43:49.683Z,1.73
2019-05-14T21:46:19.515Z,1.50
2019-05-14T21:48:48.907Z,1.20
2019-05-14T21:51:18.220Z,1.27
2019-05-14T21:53:48.245Z,1.20
2019-05-14T21:56:21.271Z,1.40
2019-05-14T21:58:48.842Z,1.40
2019-05-14T22:01:18.917Z,1.07
2019-05-14T22:03:48.607Z,1.30
2019-05-14T22:06:18.437Z,1.57
2019-05-14T22:08:48.818Z,1.10
2019-05-14T22:11:18.804Z,1.43
2019-05-14T22:13:49.738Z,1.13
2019-05-14T22:16:19.185Z,1.20
2019-05-14T22:18:48.619Z,1.07
2019-05-14T22:21:18.403Z,1.30
2019-05-14T22:23:48.287Z,1.20
2019-05-14T22:26:18.618Z,1.07
2019-05-14T22:28:48.110Z,1.00
2019-05-14T22:31:19.276Z,1.20
2019-05-14T22:33:48.518Z,1.00
2019-05-14T22:36:21.466Z,1.00
2019-05-14T22:38:48.919Z,1.10
2019-05-14T22:41:18.543Z,0.93
2019-05-14T22:43:48.843Z,1.10
2019-05-14T22:46:18.981Z,1.20
2019-05-14T22:48:51.273Z,1.40
2019-05-14T22:51:19.438Z,1.20
2019-05-14T22:53:49.459Z,0.90
2019-05-14T22:56:19.979Z,1.23
2019-05-14T22:58:49.299Z,1.07
2019-05-14T23:01:18.749Z,1.17
2019-05-14T23:03:49.237Z,1.30
2019-05-14T23:06:18.953Z,1.30
2019-05-14T23:08:48.873Z,1.17
2019-05-14T23:11:19.743Z,1.03
2019-05-14T23:13:55.558Z,1.47
2019-05-14T23:16:34.317Z,1.40
2019-05-14T23:18:58.215Z,1.30
2019-05-14T23:21:28.335Z,1.77
2019-05-14T23:23:58.326Z,1.20
2019-05-14T23:26:28.582Z,1.30
2019-05-14T23:28:58.732Z,1.00
2019-05-14T23:31:29.252Z,1.10
2019-05-14T23:33:58.721Z,1.10
2019-05-14T23:36:29.207Z,1.20
2019-05-14T23:38:59.204Z,1.20
2019-05-14T23:41:28.773Z,1.10
2019-05-14T23:43:58.094Z,1.27
2019-05-14T23:46:29.173Z,1.20
2019-05-14T23:48:59.234Z,1.23
2019-05-14T23:51:29.061Z,1.10
2019-05-14T23:53:58.687Z,1.17
2019-05-14T23:56:28.875Z,1.17
2019-05-14T23:59:01.852Z,1.13
